Jupiter, Florida
Current Conditions -  °F | °C
As of 7:53 AM on Friday 31 Oct 2014 (Local Time) from KPBI Reporting Station
Scattered Clouds Scattered Clouds  
Wind Chill: 69°   Ceiling: Unl
Heat Index: 69°   Visibility: 10mi
Dew Point: 68°   Wind: 5mph
Humidity: 96%   Direction: 240°WSW
Pressure: 29.83"   Gusts: NA
Location:  26.93°N, 80.1°W
Report Text: KPBI 311153Z 24004KT 10SM FEW020 SCT110 SCT250 21/20 A2983 RMK AO2 SLP102 TCU DSNT NE E T02060200 10222 20194 53008
Loading
Personal Weather Stations






























Interactive Weather Map
Tropical Storm Tracking
New forecast layout! Learn more

10-Day Weather Forecast

Advertisements
Track Severe Weather on mobile